Time;durP1;ratioP1;P1;durP2;ratioP2;P2;SDS_P1;SDS_P2;PMS_P1;PMS_P2;Temp;Humidity;BMP_temperature;BMP_pressure;BME280_temperature;BME280_humidity;BME280_pressure;Samples;Min_cycle;Max_cycle;Signal;HPM_P1;HPM_P2
2022/04/04 00:01:21;;;;;;;19.85;11.07;;;2.00;99.90;;;;;;5010964;28;20459;-52
2022/04/04 00:03:47;;;;;;;21.83;11.90;;;0.20;99.90;;;;;;5011308;28;20905;-53
2022/04/04 00:06:12;;;;;;;19.63;11.15;;;0.20;99.90;;;;;;5011625;28;20865;-53
2022/04/04 00:08:38;;;;;;;18.17;10.40;;;2.00;99.90;;;;;;5011810;28;20432;-53
2022/04/04 00:11:04;;;;;;;17.47;10.60;;;0.20;99.90;;;;;;4992711;28;20400;-51
2022/04/04 00:13:29;;;;;;;17.48;10.40;;;0.20;99.90;;;;;;5011990;28;20423;-52
2022/04/04 00:15:55;;;;;;;17.27;10.20;;;0.30;99.90;;;;;;5012279;28;20380;-53
2022/04/04 00:18:21;;;;;;;19.58;11.25;;;0.30;99.90;;;;;;5011351;28;20381;-52
2022/04/04 00:20:53;;;;;;;20.23;10.52;;;0.30;99.90;;;;;;5012076;28;20415;-52
2022/04/04 00:23:19;;;;;;;18.27;11.00;;;0.20;99.90;;;;;;5011177;28;20431;-53
2022/04/04 00:25:46;;;;;;;18.50;10.45;;;0.20;99.90;;;;;;5011831;28;20400;-52
2022/04/04 00:28:13;;;;;;;17.52;10.55;;;0.20;99.90;;;;;;5011226;28;20791;-52
2022/04/04 00:30:39;;;;;;;22.10;10.63;;;0.20;99.90;;;;;;5012185;28;20399;-52
2022/04/04 00:33:07;;;;;;;15.93;10.40;;;0.20;99.90;;;;;;5011214;28;20946;-51
2022/04/04 00:35:34;;;;;;;20.20;11.20;;;0.40;99.90;;;;;;5008559;28;20473;-53
2022/04/04 00:38:01;;;;;;;20.63;11.20;;;0.30;99.90;;;;;;5011925;28;20423;-52
2022/04/04 00:40:27;;;;;;;20.65;10.60;;;0.30;99.90;;;;;;4993058;28;20401;-52
2022/04/04 00:42:53;;;;;;;16.58;10.15;;;1.80;99.90;;;;;;5011628;28;20734;-53
2022/04/04 00:45:19;;;;;;;17.83;10.30;;;0.90;99.90;;;;;;5010751;28;20413;-52
2022/04/04 00:47:45;;;;;;;17.60;9.73;;;0.20;99.90;;;;;;5011410;28;20465;-53
2022/04/04 00:50:12;;;;;;;21.85;10.38;;;0.10;99.90;;;;;;5010842;28;20951;-50
2022/04/04 00:52:38;;;;;;;17.45;10.20;;;0.10;99.90;;;;;;5010245;28;20407;-49
2022/04/04 00:55:08;;;;;;;17.88;10.00;;;0.10;99.90;;;;;;5011131;28;20395;-49
2022/04/04 00:57:36;;;;;;;18.48;10.90;;;0.10;99.90;;;;;;5009564;28;20424;-51
2022/04/04 01:00:09;;;;;;;17.38;10.60;;;0.00;99.90;;;;;;5011231;28;20794;-50
2022/04/04 01:02:35;;;;;;;18.40;10.80;;;0.00;99.90;;;;;;5009302;28;20448;-51
2022/04/04 01:05:01;;;;;;;17.55;9.90;;;1.80;99.90;;;;;;5011297;28;20487;-51
2022/04/04 01:07:27;;;;;;;16.77;9.90;;;0.00;99.90;;;;;;5010302;28;20492;-52
2022/04/04 01:09:52;;;;;;;18.50;10.68;;;0.80;99.90;;;;;;5011041;28;20727;-52
2022/04/04 01:12:21;;;;;;;16.55;9.80;;;0.10;99.90;;;;;;5009523;28;20484;-52
2022/04/04 01:14:48;;;;;;;17.45;9.40;;;0.00;99.90;;;;;;4993938;28;20392;-52
2022/04/04 01:17:21;;;;;;;18.67;10.38;;;0.00;99.90;;;;;;5010267;28;20392;-52
2022/04/04 01:19:47;;;;;;;17.73;10.52;;;0.10;99.90;;;;;;5011076;28;20392;-52
2022/04/04 01:22:15;;;;;;;16.08;9.63;;;0.80;99.90;;;;;;5010270;28;20460;-52
2022/04/04 01:24:41;;;;;;;16.30;9.48;;;-0.10;99.90;;;;;;5011153;28;20416;-52
2022/04/04 01:27:08;;;;;;;21.35;10.25;;;-0.10;99.90;;;;;;5010568;28;20405;-52
2022/04/04 01:29:34;;;;;;;16.20;9.38;;;-0.10;99.90;;;;;;5008028;28;20393;-53
2022/04/04 01:32:00;;;;;;;18.13;9.90;;;-0.10;99.90;;;;;;5009850;28;20854;-52
2022/04/04 01:34:29;;;;;;;17.58;9.35;;;-0.20;99.90;;;;;;5013711;28;20458;-52
2022/04/04 01:36:55;;;;;;;16.23;9.85;;;-0.20;99.90;;;;;;5008555;28;20441;-52
2022/04/04 01:39:22;;;;;;;14.20;8.70;;;-0.10;99.90;;;;;;5009907;28;20393;-52
2022/04/04 01:41:48;;;;;;;15.63;8.95;;;-0.20;99.90;;;;;;5010549;28;20484;-52
2022/04/04 01:44:14;;;;;;;15.85;8.95;;;-0.30;99.90;;;;;;5014517;28;20410;-52
2022/04/04 01:46:39;;;;;;;15.52;9.32;;;-0.30;99.90;;;;;;5010350;28;20412;-53
2022/04/04 01:49:06;;;;;;;15.00;8.60;;;-0.30;99.90;;;;;;5010370;28;20551;-51
2022/04/04 01:51:34;;;;;;;16.20;9.43;;;-0.20;99.90;;;;;;5011290;28;20898;-53
2022/04/04 01:53:59;;;;;;;15.13;8.95;;;-0.30;99.90;;;;;;5010735;28;20405;-53
2022/04/04 01:56:26;;;;;;;15.27;8.48;;;-0.30;99.90;;;;;;5011259;28;20415;-53
2022/04/04 01:58:52;;;;;;;15.98;7.93;;;-0.30;99.90;;;;;;5013249;28;20978;-52
2022/04/04 02:01:19;;;;;;;13.82;8.35;;;-0.30;99.90;;;;;;5009303;28;20480;-52
2022/04/04 02:03:47;;;;;;;15.85;8.32;;;-0.30;99.90;;;;;;5010494;28;20412;-52
2022/04/04 02:06:13;;;;;;;15.13;8.30;;;-0.20;99.90;;;;;;5006831;28;20475;-53
2022/04/04 02:08:40;;;;;;;14.45;8.20;;;-0.30;99.90;;;;;;5010114;28;20389;-52
2022/04/04 02:11:07;;;;;;;14.43;8.48;;;-0.30;99.90;;;;;;5012808;28;20395;-50
2022/04/04 02:13:33;;;;;;;15.68;8.60;;;-0.30;99.90;;;;;;5008764;28;20484;-52
2022/04/04 02:16:02;;;;;;;14.93;8.70;;;-0.30;99.90;;;;;;5011420;28;20481;-52
2022/04/04 02:18:30;;;;;;;14.40;8.47;;;-0.30;99.90;;;;;;4991909;28;20388;-52
2022/04/04 02:20:56;;;;;;;15.27;9.23;;;-0.30;99.90;;;;;;5007320;28;21222;-52
2022/04/04 02:23:22;;;;;;;15.95;8.50;;;-0.30;99.90;;;;;;5008869;28;20924;-52
2022/04/04 02:25:49;;;;;;;13.80;8.30;;;-0.40;99.90;;;;;;5010939;28;20415;-52
2022/04/04 02:28:16;;;;;;;17.58;8.30;;;-0.30;99.90;;;;;;5009109;28;20453;-52
2022/04/04 02:30:43;;;;;;;17.35;9.10;;;-0.40;99.90;;;;;;5010903;28;20404;-52
2022/04/04 02:33:09;;;;;;;14.82;8.07;;;-0.50;99.90;;;;;;5009832;28;20416;-52
2022/04/04 02:35:35;;;;;;;14.00;8.18;;;-0.50;99.90;;;;;;5009671;28;20419;-52
2022/04/04 02:38:02;;;;;;;14.23;7.50;;;-0.50;99.90;;;;;;5011407;28;20396;-52
2022/04/04 02:40:28;;;;;;;13.27;7.38;;;-0.50;99.90;;;;;;5009312;28;20451;-51
2022/04/04 02:42:54;;;;;;;22.23;7.50;;;-0.50;99.90;;;;;;5012607;28;20486;-52
2022/04/04 02:45:20;;;;;;;13.07;6.85;;;-0.50;99.90;;;;;;5008745;28;20436;-52
2022/04/04 02:47:46;;;;;;;16.90;8.48;;;-0.50;99.90;;;;;;5009629;28;20826;-52
2022/04/04 02:50:13;;;;;;;15.23;7.82;;;-0.50;99.90;;;;;;5009919;28;20488;-52
2022/04/04 02:52:39;;;;;;;14.18;7.60;;;-0.50;99.90;;;;;;5010713;28;20744;-52
2022/04/04 02:57:51;;;;;;;14.93;8.20;;;-0.50;99.90;;;;;;5016938;28;20482;-52
2022/04/04 03:00:19;;;;;;;16.20;7.25;;;-0.50;99.90;;;;;;5028988;28;20383;-52
2022/04/04 03:02:46;;;;;;;14.48;8.10;;;-0.60;99.90;;;;;;5024797;28;20409;-52
2022/04/04 03:05:12;;;;;;;15.20;7.70;;;-0.60;99.90;;;;;;5009136;28;20451;-52
2022/04/04 03:07:39;;;;;;;15.27;7.30;;;-0.50;99.90;;;;;;5010140;28;20408;-52
2022/04/04 03:10:05;;;;;;;12.95;7.22;;;-0.60;99.90;;;;;;5009736;28;20385;-51
2022/04/04 03:12:31;;;;;;;16.93;7.80;;;-0.50;99.90;;;;;;5011874;28;20393;-52
2022/04/04 03:14:57;;;;;;;16.50;8.80;;;-0.50;99.90;;;;;;5019381;28;20535;-52
2022/04/04 03:17:23;;;;;;;14.97;8.60;;;-0.60;99.90;;;;;;5008850;28;20428;-52
2022/04/04 03:19:49;;;;;;;14.82;7.07;;;-0.70;99.90;;;;;;5009852;28;20397;-52
2022/04/04 03:22:14;;;;;;;13.23;7.80;;;-0.60;99.90;;;;;;5008521;28;20396;-52
2022/04/04 03:24:40;;;;;;;14.57;8.50;;;-0.60;99.90;;;;;;5009483;28;20416;-52
2022/04/04 03:27:06;;;;;;;14.77;7.63;;;-0.70;99.90;;;;;;5009824;28;20440;-51
2022/04/04 03:29:32;;;;;;;13.23;7.35;;;-0.40;99.90;;;;;;5009914;28;20405;-52
2022/04/04 03:31:58;;;;;;;16.43;8.33;;;-0.80;99.90;;;;;;5010942;28;20810;-53
2022/04/04 03:34:25;;;;;;;13.77;7.68;;;-0.80;99.90;;;;;;5010109;28;20384;-52
2022/04/04 03:36:51;;;;;;;16.40;8.80;;;-0.80;99.90;;;;;;5027543;28;20390;-51
2022/04/04 03:39:17;;;;;;;13.83;8.20;;;-0.80;99.90;;;;;;5009107;28;20455;-52
2022/04/04 03:41:46;;;;;;;14.60;8.30;;;-0.80;99.90;;;;;;5009941;28;20396;-52
2022/04/04 03:44:12;;;;;;;15.73;8.20;;;1.10;99.90;;;;;;4988927;28;20876;-51
2022/04/04 03:46:38;;;;;;;15.93;8.48;;;-0.90;99.90;;;;;;4996742;28;20403;-52
2022/04/04 03:49:05;;;;;;;14.85;7.75;;;-0.80;99.90;;;;;;5029339;28;20482;-53
2022/04/04 03:51:32;;;;;;;14.50;7.80;;;-0.80;99.90;;;;;;5026056;28;20405;-53
2022/04/04 03:53:59;;;;;;;14.73;7.90;;;-0.70;99.90;;;;;;5010161;28;20487;-52
2022/04/04 03:56:26;;;;;;;17.40;8.60;;;-0.70;99.90;;;;;;5014623;28;20393;-52
2022/04/04 03:58:54;;;;;;;14.10;7.90;;;-0.70;99.90;;;;;;5032727;28;20467;-52
2022/04/04 04:01:20;;;;;;;16.17;8.10;;;-0.70;99.90;;;;;;5018931;28;20401;-52
2022/04/04 04:03:46;;;;;;;18.48;8.40;;;-0.70;99.90;;;;;;5017908;28;20817;-52
2022/04/04 04:06:11;;;;;;;18.15;8.55;;;-0.70;99.90;;;;;;5012126;28;20387;-52
2022/04/04 04:08:43;;;;;;;15.00;7.90;;;-0.90;99.90;;;;;;5022785;28;20438;-53
2022/04/04 04:11:09;;;;;;;15.70;8.27;;;-0.90;99.90;;;;;;5004853;28;20409;-50
2022/04/04 04:13:36;;;;;;;15.40;7.37;;;-0.80;99.90;;;;;;4995231;28;20389;-52
2022/04/04 04:16:02;;;;;;;15.73;7.82;;;-0.80;99.90;;;;;;5012810;28;20407;-52
2022/04/04 04:18:29;;;;;;;15.30;7.50;;;-0.80;99.90;;;;;;5001909;28;20424;-53
2022/04/04 04:20:55;;;;;;;13.90;7.47;;;-0.80;99.90;;;;;;5026994;28;20408;-53
2022/04/04 04:23:21;;;;;;;11.98;6.80;;;-0.80;99.90;;;;;;5031038;28;20423;-53
2022/04/04 04:25:48;;;;;;;14.50;7.30;;;-0.90;99.90;;;;;;5020892;28;20459;-52
2022/04/04 04:28:14;;;;;;;13.93;7.03;;;0.70;99.90;;;;;;5011943;28;20426;-50
2022/04/04 04:30:40;;;;;;;15.98;7.80;;;-0.90;99.90;;;;;;5022585;28;20503;-56
2022/04/04 04:33:07;;;;;;;13.15;7.28;;;-0.80;99.90;;;;;;5014390;28;20397;-53
2022/04/04 04:35:33;;;;;;;12.98;6.65;;;-0.80;99.90;;;;;;5016181;28;20395;-53
2022/04/04 04:38:00;;;;;;;14.70;7.68;;;-0.90;99.90;;;;;;5028224;28;20492;-52
2022/04/04 04:40:27;;;;;;;12.93;6.47;;;-0.90;99.90;;;;;;5020674;28;20437;-53
2022/04/04 04:42:53;;;;;;;11.53;6.37;;;-0.90;99.90;;;;;;5015058;28;20398;-53
2022/04/04 04:45:19;;;;;;;13.07;6.50;;;-0.90;99.90;;;;;;5016156;28;20407;-53
2022/04/04 04:47:45;;;;;;;10.70;6.10;;;-0.90;99.90;;;;;;5009065;28;20436;-53
2022/04/04 04:50:14;;;;;;;12.10;6.35;;;-0.90;99.90;;;;;;5020011;28;20431;-51
2022/04/04 04:52:40;;;;;;;13.40;6.95;;;-0.80;99.90;;;;;;5025975;28;20429;-53
2022/04/04 04:55:06;;;;;;;13.55;7.25;;;-0.80;99.90;;;;;;5014814;28;20396;-53
2022/04/04 04:57:32;;;;;;;16.23;8.70;;;-0.90;99.90;;;;;;5026295;28;20395;-53
2022/04/04 04:59:58;;;;;;;15.88;9.02;;;-0.10;99.90;;;;;;5027562;28;20400;-53
2022/04/04 05:02:24;;;;;;;19.13;9.10;;;-0.80;99.90;;;;;;5009074;28;20762;-53
2022/04/04 05:04:50;;;;;;;17.92;8.93;;;-0.70;99.90;;;;;;4978597;28;20405;-53
2022/04/04 05:07:15;;;;;;;18.40;9.70;;;0.40;99.90;;;;;;5010222;28;20416;-53
2022/04/04 05:09:41;;;;;;;16.60;8.07;;;-0.60;99.90;;;;;;5016159;28;20400;-53
2022/04/04 05:12:07;;;;;;;15.27;8.68;;;-0.60;99.90;;;;;;5011513;28;20785;-51
2022/04/04 05:14:33;;;;;;;21.37;9.70;;;-0.60;99.90;;;;;;5011506;28;20483;-52
2022/04/04 05:16:59;;;;;;;16.23;9.00;;;-0.60;99.90;;;;;;5010613;28;20404;-53
2022/04/04 05:19:24;;;;;;;18.27;10.18;;;-0.60;99.90;;;;;;5009781;28;20401;-53
2022/04/04 05:21:51;;;;;;;18.80;9.70;;;0.50;99.90;;;;;;5013386;28;20400;-53
2022/04/04 05:24:18;;;;;;;15.35;9.20;;;-0.50;99.90;;;;;;5012539;28;20503;-53
2022/04/04 05:26:44;;;;;;;16.85;9.40;;;-0.40;99.90;;;;;;5011609;28;20428;-53
2022/04/04 05:29:10;;;;;;;18.33;8.70;;;-0.40;99.90;;;;;;5010533;28;20397;-51
2022/04/04 05:31:36;;;;;;;12.98;6.97;;;-0.40;99.90;;;;;;5016673;28;20445;-53
2022/04/04 05:34:04;;;;;;;14.98;6.90;;;-0.30;99.90;;;;;;5023774;28;20813;-53
2022/04/04 05:36:33;;;;;;;14.48;7.13;;;-0.10;99.90;;;;;;5010222;28;20642;-53
2022/04/04 05:38:59;;;;;;;14.68;7.15;;;0.10;99.90;;;;;;5011237;28;20403;-53
2022/04/04 05:41:27;;;;;;;13.43;6.40;;;0.10;99.90;;;;;;5011577;28;20395;-53
2022/04/04 05:43:53;;;;;;;13.55;6.75;;;0.40;99.90;;;;;;5010870;28;20409;-53
2022/04/04 05:46:19;;;;;;;14.27;7.65;;;0.50;99.90;;;;;;4994837;28;20433;-53
2022/04/04 05:48:45;;;;;;;12.35;7.10;;;0.90;99.90;;;;;;5016176;28;20426;-54
2022/04/04 05:51:13;;;;;;;13.50;7.65;;;1.30;99.90;;;;;;5013546;28;20427;-52
2022/04/04 05:53:39;;;;;;;14.43;6.78;;;1.80;99.90;;;;;;5010926;28;20412;-53
2022/04/04 05:56:05;;;;;;;13.35;5.80;;;2.30;99.90;;;;;;5013230;28;20866;-54
2022/04/04 05:58:31;;;;;;;11.88;6.30;;;2.90;99.90;;;;;;5011281;28;20435;-54
2022/04/04 06:00:58;;;;;;;13.70;6.00;;;3.60;99.90;;;;;;5013722;28;20726;-54
2022/04/04 06:03:24;;;;;;;12.63;6.00;;;4.10;99.90;;;;;;5010255;28;20478;-52
2022/04/04 06:05:50;;;;;;;14.10;6.80;;;4.10;99.90;;;;;;5007060;28;20894;-54
2022/04/04 06:08:19;;;;;;;15.75;6.20;;;4.10;99.90;;;;;;5006952;28;20393;-53
2022/04/04 06:10:45;;;;;;;15.75;5.60;;;4.70;99.90;;;;;;5009352;28;20971;-54
2022/04/04 06:13:16;;;;;;;12.45;5.68;;;5.10;99.90;;;;;;5009719;28;20400;-52
2022/04/04 06:15:43;;;;;;;10.55;4.80;;;5.60;99.90;;;;;;5013441;28;20404;-54
2022/04/04 06:18:10;;;;;;;11.20;6.00;;;6.10;98.40;;;;;;5009555;28;20913;-53
2022/04/04 06:20:36;;;;;;;11.87;5.80;;;6.20;98.80;;;;;;5013217;28;20513;-54
2022/04/04 06:23:04;;;;;;;11.95;5.60;;;5.50;97.30;;;;;;4992794;28;20413;-52
2022/04/04 06:25:30;;;;;;;16.63;7.10;;;5.80;98.00;;;;;;5013385;28;20506;-52
2022/04/04 06:27:56;;;;;;;11.50;5.90;;;5.10;98.40;;;;;;5020582;28;20914;-56
2022/04/04 06:30:22;;;;;;;11.60;5.90;;;4.60;97.90;;;;;;5008541;28;20408;-51
2022/04/04 06:32:48;;;;;;;10.52;5.57;;;4.70;98.90;;;;;;5009446;28;20901;-51
2022/04/04 06:35:14;;;;;;;11.07;5.70;;;4.30;99.40;;;;;;5008303;28;20381;-51
2022/04/04 06:37:41;;;;;;;13.05;5.85;;;4.40;99.90;;;;;;5009627;28;20411;-51
2022/04/04 06:40:08;;;;;;;12.85;6.07;;;4.50;99.90;;;;;;5009962;28;20881;-51
2022/04/04 06:42:38;;;;;;;10.95;5.57;;;4.80;99.60;;;;;;5008298;28;20397;-51
2022/04/04 06:45:06;;;;;;;11.10;5.60;;;5.30;98.20;;;;;;5012788;28;20494;-50
2022/04/04 06:47:32;;;;;;;11.65;5.75;;;5.50;96.70;;;;;;5008060;28;20393;-51
2022/04/04 06:49:59;;;;;;;11.55;5.80;;;5.60;96.40;;;;;;5008556;28;20901;-51
2022/04/04 06:52:25;;;;;;;11.52;5.70;;;6.10;95.40;;;;;;5008525;28;20399;-51
2022/04/04 06:54:52;;;;;;;11.10;5.70;;;5.90;95.90;;;;;;5009145;28;20446;-51
2022/04/04 06:57:18;;;;;;;9.85;5.20;;;6.70;94.80;;;;;;5008945;28;20913;-54
2022/04/04 06:59:44;;;;;;;10.83;6.10;;;7.30;93.10;;;;;;5009130;28;20460;-51
2022/04/04 07:02:10;;;;;;;10.80;6.07;;;7.60;92.10;;;;;;5008923;28;20432;-51
2022/04/04 07:04:37;;;;;;;14.02;6.50;;;8.10;92.60;;;;;;5008322;28;20432;-55
2022/04/04 07:07:04;;;;;;;11.00;6.07;;;8.30;90.30;;;;;;5008890;28;20424;-55
2022/04/04 07:09:30;;;;;;;11.60;6.32;;;8.50;88.40;;;;;;5008109;28;20953;-54
2022/04/04 07:11:55;;;;;;;12.25;5.55;;;7.40;89.20;;;;;;5009024;28;20404;-55
2022/04/04 07:14:24;;;;;;;11.25;5.63;;;7.30;90.30;;;;;;5011628;28;20385;-55
2022/04/04 07:16:53;;;;;;;13.60;6.00;;;7.80;88.10;;;;;;5013572;28;20446;-55
2022/04/04 07:19:22;;;;;;;11.90;6.25;;;7.80;89.00;;;;;;5008818;28;20404;-54
2022/04/04 07:21:53;;;;;;;11.00;6.55;;;7.80;87.80;;;;;;5013522;28;20404;-54
2022/04/04 07:24:22;;;;;;;11.43;6.07;;;7.90;88.80;;;;;;5006828;28;20482;-56
2022/04/04 07:26:48;;;;;;;13.60;6.40;;;8.30;87.40;;;;;;5008365;28;20985;-54
2022/04/04 07:29:17;;;;;;;11.98;6.75;;;8.10;86.40;;;;;;5009925;28;20874;-53
2022/04/04 07:31:43;;;;;;;14.63;6.50;;;8.40;88.00;;;;;;5013024;28;20450;-55
2022/04/04 07:34:12;;;;;;;13.70;6.60;;;7.70;86.30;;;;;;5012564;28;20392;-55
2022/04/04 07:36:41;;;;;;;11.88;6.65;;;7.80;88.50;;;;;;5017320;28;20390;-55
2022/04/04 07:39:07;;;;;;;12.27;6.22;;;7.90;88.60;;;;;;5012446;28;20427;-55
2022/04/04 07:41:34;;;;;;;12.20;6.20;;;7.90;88.90;;;;;;5011976;28;20509;-54
2022/04/04 07:44:00;;;;;;;11.95;5.88;;;7.60;89.20;;;;;;5012336;28;20427;-55
2022/04/04 07:46:26;;;;;;;12.65;6.80;;;8.20;89.00;;;;;;5018543;28;20401;-55
2022/04/04 07:48:55;;;;;;;11.30;5.85;;;8.70;88.80;;;;;;5012783;28;20395;-55
2022/04/04 07:51:21;;;;;;;10.32;5.50;;;8.60;85.20;;;;;;5010628;28;20925;-55
2022/04/04 07:53:47;;;;;;;12.45;5.97;;;8.60;87.30;;;;;;4995522;28;20412;-55
2022/04/04 07:56:13;;;;;;;11.57;6.20;;;8.20;84.20;;;;;;5014642;28;20396;-53
2022/04/04 07:58:38;;;;;;;12.07;6.47;;;7.60;86.70;;;;;;5013352;28;20400;-55
2022/04/04 08:01:04;;;;;;;13.13;5.97;;;7.70;87.90;;;;;;5012612;28;20443;-55
2022/04/04 08:03:30;;;;;;;11.10;5.80;;;7.90;87.00;;;;;;4998119;28;20405;-55
2022/04/04 08:05:56;;;;;;;12.05;6.25;;;7.50;87.00;;;;;;5012643;28;20431;-55
2022/04/04 08:08:21;;;;;;;11.70;6.13;;;8.00;89.30;;;;;;5011901;28;20750;-55
2022/04/04 08:10:47;;;;;;;11.43;6.32;;;8.80;85.70;;;;;;5020119;28;20944;-55
2022/04/04 08:13:13;;;;;;;12.25;6.10;;;9.20;84.90;;;;;;5009434;28;20385;-54
2022/04/04 08:15:39;;;;;;;13.07;6.10;;;9.50;83.00;;;;;;5012276;28;20384;-55
2022/04/04 08:18:04;;;;;;;12.27;6.30;;;9.20;83.20;;;;;;5016801;28;20405;-55
2022/04/04 08:20:31;;;;;;;11.23;6.50;;;8.80;84.30;;;;;;5011117;28;20408;-55
2022/04/04 08:22:57;;;;;;;10.43;5.90;;;9.00;85.20;;;;;;4994915;28;21769;-56
2022/04/04 08:25:23;;;;;;;11.98;5.90;;;10.00;82.10;;;;;;5007961;28;20462;-56
2022/04/04 08:27:49;;;;;;;12.10;6.25;;;9.60;77.80;;;;;;5015148;28;20450;-56
2022/04/04 08:30:17;;;;;;;13.60;6.93;;;10.10;79.70;;;;;;5009788;28;20485;-54
2022/04/04 08:32:44;;;;;;;11.38;6.40;;;10.00;79.50;;;;;;4992227;28;20389;-55
2022/04/04 08:35:12;;;;;;;10.50;6.10;;;9.90;78.80;;;;;;5011815;28;20385;-54
2022/04/04 08:37:40;;;;;;;12.47;6.67;;;9.90;76.70;;;;;;5011133;28;20389;-56
2022/04/04 08:40:09;;;;;;;10.77;6.60;;;10.10;73.50;;;;;;5012068;28;20392;-55
2022/04/04 08:42:36;;;;;;;10.90;6.35;;;10.10;73.70;;;;;;5011528;28;20670;-55
2022/04/04 08:45:03;;;;;;;11.90;6.30;;;11.30;75.40;;;;;;5011813;28;20466;-55
2022/04/04 08:47:31;;;;;;;11.52;6.53;;;11.30;71.20;;;;;;5011161;28;20396;-55
2022/04/04 08:49:58;;;;;;;12.38;6.80;;;11.60;71.10;;;;;;5011930;28;20396;-55
2022/04/04 08:52:25;;;;;;;11.75;6.60;;;10.80;70.20;;;;;;4990715;28;20405;-55
2022/04/04 08:54:51;;;;;;;12.05;6.40;;;11.00;69.80;;;;;;5011291;28;20583;-54
2022/04/04 08:57:17;;;;;;;11.48;6.25;;;10.60;66.20;;;;;;5011108;28;20467;-54
2022/04/04 08:59:44;;;;;;;13.60;7.30;;;9.40;68.90;;;;;;5011549;28;20400;-55
2022/04/04 09:02:13;;;;;;;12.52;6.60;;;9.60;72.20;;;;;;5011382;28;20417;-55
2022/04/04 09:04:40;;;;;;;9.57;5.45;;;9.60;69.90;;;;;;5010826;28;20420;-55
2022/04/04 09:07:08;;;;;;;12.38;7.20;;;9.40;73.00;;;;;;5011172;28;20811;-55
2022/04/04 09:09:38;;;;;;;14.07;8.40;;;10.40;70.10;;;;;;5009650;28;20494;-53
2022/04/04 09:12:05;;;;;;;11.88;7.57;;;11.40;65.90;;;;;;5011268;28;20497;-56
2022/04/04 09:14:35;;;;;;;10.65;6.07;;;11.20;67.60;;;;;;5010186;28;20790;-55
2022/04/04 09:17:01;;;;;;;12.73;7.38;;;11.10;62.00;;;;;;5011170;28;20425;-55
2022/04/04 09:19:29;;;;;;;11.00;6.50;;;11.20;61.70;;;;;;5008981;28;20435;-51
2022/04/04 09:21:56;;;;;;;10.50;6.40;;;11.80;63.10;;;;;;5009216;28;20404;-53
2022/04/04 09:24:41;;;;;;;10.55;6.60;;;10.90;57.10;;;;;;5010293;28;20417;-55
2022/04/04 09:27:17;;;;;;;10.45;6.80;;;11.50;58.20;;;;;;5011312;28;20415;-54
2022/04/04 09:29:43;;;;;;;12.85;6.20;;;11.40;58.60;;;;;;5010830;28;20393;-53
2022/04/04 09:32:12;;;;;;;17.05;11.88;;;11.70;57.10;;;;;;4993856;28;20796;-54
2022/04/04 09:34:57;;;;;;;11.93;7.57;;;11.70;58.90;;;;;;5009594;28;20905;-54
2022/04/04 09:37:24;;;;;;;12.40;7.53;;;12.40;60.30;;;;;;5009824;28;20396;-54
2022/04/04 09:40:00;;;;;;;12.38;7.68;;;12.10;61.90;;;;;;5017191;28;20420;-54
2022/04/04 09:42:28;;;;;;;10.93;7.10;;;12.20;57.60;;;;;;5010228;28;20381;-54
2022/04/04 09:45:05;;;;;;;12.05;6.80;;;12.60;59.20;;;;;;5011248;28;20424;-54
2022/04/04 09:47:53;;;;;;;9.82;6.55;;;12.60;54.60;;;;;;5010533;28;20909;-54
2022/04/04 09:50:45;;;;;;;9.35;5.45;;;12.30;58.60;;;;;;5009750;28;20408;-54
2022/04/04 09:53:20;;;;;;;10.60;5.10;;;11.30;53.40;;;;;;5010373;28;20442;-57
2022/04/04 09:55:52;;;;;;;10.15;6.40;;;10.30;55.30;;;;;;5011029;28;20389;-55
2022/04/04 09:58:21;;;;;;;10.00;5.50;;;10.90;54.30;;;;;;5010002;28;20392;-54
2022/04/04 10:00:50;;;;;;;9.68;5.47;;;10.90;55.70;;;;;;5011000;28;20476;-57
2022/04/04 10:03:17;;;;;;;10.93;5.30;;;10.50;56.40;;;;;;5010136;28;20415;-53
2022/04/04 10:05:50;;;;;;;9.48;5.43;;;9.60;56.90;;;;;;5010605;28;20421;-54
2022/04/04 10:08:17;;;;;;;9.85;5.82;;;10.10;57.20;;;;;;5026056;28;20391;-53
2022/04/04 10:10:44;;;;;;;9.80;5.95;;;11.00;55.70;;;;;;5028685;28;20395;-54
2022/04/04 10:13:12;;;;;;;10.27;6.00;;;11.20;57.10;;;;;;5021393;28;20443;-55
2022/04/04 10:15:38;;;;;;;9.57;5.38;;;11.50;57.10;;;;;;5009719;28;20477;-54
2022/04/04 10:18:06;;;;;;;10.10;6.00;;;12.20;59.30;;;;;;5009955;28;20380;-55
2022/04/04 10:20:33;;;;;;;9.20;5.53;;;11.70;56.50;;;;;;5017382;28;20414;-54
2022/04/04 10:22:59;;;;;;;10.60;6.07;;;11.80;54.40;;;;;;5009989;28;20504;-54
2022/04/04 10:25:29;;;;;;;9.65;5.75;;;11.10;53.60;;;;;;5009232;28;20896;-55
2022/04/04 10:27:55;;;;;;;10.50;5.97;;;11.30;56.10;;;;;;5020515;28;20891;-54
2022/04/04 10:30:34;;;;;;;10.15;6.00;;;11.30;55.20;;;;;;5013262;28;20471;-55
2022/04/04 10:33:00;;;;;;;11.32;5.88;;;10.90;57.20;;;;;;5010272;28;20385;-55
2022/04/04 10:35:28;;;;;;;10.20;5.65;;;10.90;59.00;;;;;;5010270;28;20563;-55
2022/04/04 10:37:59;;;;;;;10.03;6.07;;;11.50;57.70;;;;;;5021625;28;20402;-55
2022/04/04 10:40:28;;;;;;;12.07;6.05;;;11.60;58.10;;;;;;5010332;28;20396;-55
2022/04/04 10:43:02;;;;;;;9.80;5.35;;;10.90;58.10;;;;;;5015878;28;20484;-55
2022/04/04 10:45:30;;;;;;;10.90;6.03;;;10.60;58.60;;;;;;4991672;28;20451;-54
2022/04/04 10:48:06;;;;;;;8.73;4.82;;;10.60;61.10;;;;;;5024659;28;20452;-57
2022/04/04 10:50:33;;;;;;;9.77;5.50;;;10.30;59.60;;;;;;5024674;28;20466;-54
2022/04/04 10:53:03;;;;;;;12.57;5.80;;;9.90;60.90;;;;;;5009710;28;20422;-55
2022/04/04 10:55:38;;;;;;;9.98;5.75;;;10.10;62.70;;;;;;5008802;28;20407;-56
2022/04/04 10:58:12;;;;;;;10.00;5.90;;;10.30;64.00;;;;;;5010364;28;20409;-56
2022/04/04 11:01:09;;;;;;;9.00;5.28;;;10.70;62.30;;;;;;5008227;28;20392;-56
2022/04/04 11:03:40;;;;;;;8.60;5.15;;;10.30;61.40;;;;;;5003862;28;20417;-55
2022/04/04 11:09:14;;;;;;;8.93;5.03;;;10.70;63.20;;;;;;5009772;28;20988;-56
2022/04/04 11:11:44;;;;;;;10.25;5.40;;;10.90;60.40;;;;;;5009032;28;20389;-57
2022/04/04 11:14:41;;;;;;;9.20;5.20;;;10.80;60.70;;;;;;5008777;28;20883;-57
2022/04/04 11:20:14;;;;;;;9.50;5.50;;;10.80;63.20;;;;;;4992131;28;20418;-56
2022/04/04 11:23:04;;;;;;;9.98;4.90;;;10.80;64.40;;;;;;5007335;28;21032;-58
2022/04/04 11:25:33;;;;;;;11.50;5.97;;;10.10;62.30;;;;;;5011778;28;20452;-57
2022/04/04 11:28:00;;;;;;;9.38;5.28;;;10.20;65.30;;;;;;5009976;28;20395;-57
2022/04/04 11:30:27;;;;;;;9.80;5.60;;;10.20;64.20;;;;;;5013700;28;20409;-56
2022/04/04 11:32:57;;;;;;;10.10;5.30;;;10.40;68.10;;;;;;5009254;28;20443;-56
2022/04/04 11:35:27;;;;;;;10.27;5.72;;;10.50;65.10;;;;;;4991641;28;20731;-56
2022/04/04 11:37:57;;;;;;;8.40;4.90;;;10.40;65.10;;;;;;5009532;28;20397;-56
2022/04/04 11:40:33;;;;;;;9.60;5.20;;;9.90;65.70;;;;;;4993104;28;20401;-55
2022/04/04 11:43:02;;;;;;;10.73;5.60;;;9.80;67.80;;;;;;4986564;28;20396;-56
2022/04/04 11:45:33;;;;;;;9.70;5.10;;;9.60;68.80;;;;;;5008423;28;20536;-56
2022/04/04 11:48:06;;;;;;;9.52;5.25;;;9.50;67.90;;;;;;5009246;28;20396;-56
2022/04/04 11:50:34;;;;;;;9.60;5.13;;;9.60;68.30;;;;;;5008452;28;20397;-56
2022/04/04 11:53:14;;;;;;;8.75;4.10;;;9.80;70.20;;;;;;5016844;28;20477;-57
2022/04/04 11:55:42;;;;;;;8.80;4.60;;;9.60;66.80;;;;;;5006045;28;20467;-56
2022/04/04 11:58:13;;;;;;;14.25;6.07;;;9.50;68.10;;;;;;5006990;28;20838;-56
2022/04/04 12:00:49;;;;;;;9.07;5.22;;;9.60;67.90;;;;;;5009775;28;20409;-56
2022/04/04 12:03:16;;;;;;;8.02;4.45;;;9.60;69.00;;;;;;5012039;28;20489;-55
2022/04/04 12:05:43;;;;;;;9.68;5.00;;;9.40;67.90;;;;;;5017267;28;20416;-56
2022/04/04 12:08:10;;;;;;;9.02;4.85;;;9.30;67.80;;;;;;5013073;28;20401;-56
2022/04/04 12:10:37;;;;;;;9.35;4.40;;;9.50;69.90;;;;;;5011013;28;20475;-56
2022/04/04 12:13:10;;;;;;;8.93;4.65;;;9.30;67.40;;;;;;5012886;28;20407;-56
2022/04/04 12:15:40;;;;;;;9.45;4.85;;;9.40;67.20;;;;;;5009821;28;20393;-56
2022/04/04 12:18:07;;;;;;;8.70;4.90;;;9.40;70.00;;;;;;5012106;28;20762;-56
2022/04/04 12:20:40;;;;;;;10.13;4.80;;;9.10;64.30;;;;;;5011571;28;20409;-54
2022/04/04 12:25:57;;;;;;;8.85;4.93;;;9.40;67.30;;;;;;5011136;28;20500;-56
2022/04/04 12:28:37;;;;;;;10.73;4.70;;;9.30;69.90;;;;;;5011111;28;21385;-55
2022/04/04 12:31:19;;;;;;;9.80;5.60;;;9.10;68.10;;;;;;4996154;28;20392;-55
2022/04/04 12:34:09;;;;;;;9.43;5.20;;;9.10;69.70;;;;;;4997488;28;20393;-56
2022/04/04 12:36:41;;;;;;;11.32;5.82;;;9.30;71.20;;;;;;4994861;28;20489;-55
2022/04/04 12:39:11;;;;;;;10.60;5.70;;;9.30;70.70;;;;;;5013640;28;20397;-56
2022/04/04 12:41:45;;;;;;;9.98;4.78;;;9.70;71.30;;;;;;5010405;28;20464;-55
2022/04/04 12:44:12;;;;;;;10.40;5.50;;;9.80;70.00;;;;;;5009922;28;20499;-56
2022/04/04 12:46:38;;;;;;;11.70;5.65;;;10.10;70.50;;;;;;4993163;28;20393;-57
2022/04/04 12:49:15;;;;;;;8.57;4.60;;;10.20;69.70;;;;;;5011481;28;20400;-57
2022/04/04 12:51:55;;;;;;;9.40;5.57;;;9.50;67.30;;;;;;5010892;28;20405;-54
2022/04/04 12:54:25;;;;;;;11.48;4.65;;;9.80;72.30;;;;;;5010209;28;20393;-54
2022/04/04 12:56:52;;;;;;;9.77;6.05;;;9.70;67.80;;;;;;5009159;28;20916;-55
2022/04/04 12:59:18;;;;;;;10.25;4.88;;;9.70;67.90;;;;;;5008387;28;20451;-52